Campiña-No se requiere un especial cuidado respecto a la situación meteorológica.   -   No hay avisos

Informes METAR

 

LEZL - Sevilla, Spain
Distancia de la estación: ENE 8km
Actualización: 29/07/2021 05:30
Despejado
Despejado
 Viento de NNO
Viento: NNO 7 km/h
Temperatura: 25°C
Rocío: 14°C
Humedad: 51%
Barómetro: 1012 hPa
Resumen: Despejado
Visibilidad: mayor de 10 km
2021/07/29 03:30 LEZL 290330Z 33004KT CAVOK 25/14 Q1012 NOSIG
LEMO - Morón, Spain
Distancia de la estación: SE 43km
Actualización: 29/07/2021 05:30
Despejado
Despejado
 Viento de E
Viento: E 7 km/h
Temperatura: 21°C
Rocío: 14°C
Humedad: 64%
Barómetro: 1012 hPa
Resumen: Despejado
Visibilidad: mayor de 10 km
2021/07/29 03:30 LEMO 290330Z 10004KT CAVOK 21/14 Q1012 NOSIG
LEJR - Jeréz, Spain
Distancia de la estación: S 71km
Actualización: 29/07/2021 05:30
Despejado
Despejado
 Viento de variable
Viento: variable 2 km/h
Temperatura: 19°C
Rocío: 16°C
Humedad: 83%
Barómetro: 1012 hPa
Resumen: Despejado
Visibilidad: mayor de 10 km
2021/07/29 03:30 LEJR 290330Z VRB01KT CAVOK 19/16 Q1012
 
LERT - Rota, Spain
Distancia de la estación: SSO 89km
Actualización: 29/07/2021 05:30
Despejado
Despejado
 Viento de ESE
Viento: ESE 15 km/h
Temperatura: 24°C
Rocío: 20°C
Humedad: 78%
Barómetro: 1012 hPa
Resumen: Despejado
Visibilidad: mayor de 10 km
2021/07/29 03:30 LERT 290330Z 11008KT 090V150 CAVOK 24/20 Q1012 NOSIG
LEMG - Málaga, Spain
Distancia de la estación: ESE 157km
Actualización: 29/07/2021 05:30
Muy nuboso
Muy nuboso
 Viento de calm
Viento: Calma
Temperatura: 24°C
Rocío: 21°C
Humedad: 83%
Barómetro: 1013 hPa
Nubes: Muy nuboso
Visibilidad: 10 km
Detalles de las nubes: Muy nuboso 518 m
2021/07/29 03:30 LEMG 290330Z 00000KT 9999 BKN017 24/21 Q1013 NOSIG
LEBA - Córdoba, Spain
Distancia de la estación: ENE 115km
Actualización: 29/07/2021 05:30
Despejado
Despejado
 Viento de OSO
Viento: OSO 7 km/h
Temperatura: 23°C
Rocío: 15°C
Humedad: 61%
Barómetro: 1013 hPa
Resumen: Despejado
Visibilidad: mayor de 10 km
2021/07/29 03:30 LEBA 290330Z AUTO 24004KT CAVOK 23/15 Q1013
 
LEGR - Granada, Spain
Distancia de la estación: E 198km
Actualización: 29/07/2021 05:30
Despejado
Despejado
 Viento de variable
Viento: variable 2 km/h
Temperatura: 22°C
Rocío: 18°C
Humedad: 78%
Barómetro: 1016 hPa
Resumen: Despejado
Visibilidad: mayor de 10 km
2021/07/29 03:30 LEGR 290330Z AUTO VRB01KT CAVOK 22/18 Q1016
LEAM - Almería, Spain
Distancia de la estación: E 326km
Actualización: 29/07/2021 05:30
Despejado
Despejado
 Viento de N
Viento: N 7 km/h
Temperatura: 24°C
Rocío: 20°C
Humedad: 78%
Barómetro: 1013 hPa
Resumen: Despejado
Visibilidad: mayor de 10 km
2021/07/29 03:30 LEAM 290330Z 36004KT 320V050 CAVOK 24/20 Q1013
LEMD - Madrid/Barajas, Spain
Distancia de la estación: NNE 402km
Actualización: 29/07/2021 05:30
Despejado
Despejado
 Viento de ESE
Viento: ESE 6 km/h
Temperatura: 23°C
Rocío: 16°C
Humedad: 65%
Barómetro: 1015 hPa
Resumen: Despejado
Visibilidad: mayor de 10 km
2021/07/29 03:30 LEMD 290330Z 12003KT CAVOK 23/16 Q1015 NOSIG
 
LEVD - Valladolid, Spain
Distancia de la estación: N 492km
Actualización: 29/07/2021 05:30
Despejado
Despejado
 Viento de E
Viento: E 7 km/h
Temperatura: 13°C
Rocío: 11°C
Humedad: 88%
Barómetro: 1016 hPa
Resumen: Despejado
Visibilidad: mayor de 10 km
2021/07/29 03:30 LEVD 290330Z AUTO 08004KT 040V110 CAVOK 13/11 Q1016
LEBL - Barcelona, Spain
Distancia de la estación: NE 816km
Actualización: 29/07/2021 05:30
Poco nuboso
Poco nuboso
 Viento de NNO
Viento: NNO 9 km/h
Temperatura: 21°C
Rocío: 18°C
Humedad: 83%
Barómetro: 1015 hPa
Nubes: Poco nuboso
Visibilidad: 10 km
Detalles de las nubes: Poco nuboso 518 m
2021/07/29 03:30 LEBL 290330Z 34005KT 9999 FEW017 21/18 Q1015 NOSIG
LEVC - Valencia, Spain
Distancia de la estación: ENE 535km
Actualización: 29/07/2021 05:30
Poco nuboso
Poco nuboso
 Viento de NO
Viento: NO 7 km/h
Temperatura: 23°C
Rocío: 20°C
Humedad: 83%
Barómetro: 1015 hPa
Nubes: Poco nuboso
Visibilidad: 10 km
Detalles de las nubes: Poco nuboso 488 m
2021/07/29 03:30 LEVC 290330Z 32004KT 9999 FEW016 23/20 Q1015 NOSIG